Time;durP1;ratioP1;P1;durP2;ratioP2;P2;SDS_P1;SDS_P2;PMS_P1;PMS_P2;Temp;Humidity;BMP_temperature;BMP_pressure;BME280_temperature;BME280_humidity;BME280_pressure;Samples;Min_cycle;Max_cycle;Signal;HPM_P1;HPM_P2
2023/03/01 00:00:18;;;;;;;8.27;7.57;;;;;;;;;;5056904;28;20244;-61
2023/03/01 00:02:46;;;;;;;7.90;7.20;;;;;;;;;;5056312;28;20209;-60
2023/03/01 00:05:13;;;;;;;7.72;7.03;;;;;;;;;;5056854;28;20200;-60
2023/03/01 00:07:41;;;;;;;7.28;6.65;;;;;;;;;;5056636;28;20205;-61
2023/03/01 00:10:09;;;;;;;7.57;6.88;;;;;;;;;;5056875;28;20205;-60
2023/03/01 00:12:37;;;;;;;7.32;6.72;;;;;;;;;;5057312;28;20288;-61
2023/03/01 00:15:06;;;;;;;7.57;6.88;;;;;;;;;;5060222;28;20260;-61
2023/03/01 00:17:35;;;;;;;7.30;6.70;;;;;;;;;;5060584;28;20589;-61
2023/03/01 00:20:02;;;;;;;7.30;6.60;;;;;;;;;;5060806;28;20205;-61
2023/03/01 00:22:30;;;;;;;7.38;6.68;;;;;;;;;;5060381;28;20205;-61
2023/03/01 00:24:58;;;;;;;7.65;7.00;;;;;;;;;;5060344;28;20612;-61
2023/03/01 00:27:25;;;;;;;7.03;6.43;;;;;;;;;;5060591;28;20292;-61
2023/03/01 00:29:54;;;;;;;7.38;6.68;;;;;;;;;;5060359;28;20213;-61
2023/03/01 00:32:21;;;;;;;7.07;6.47;;;;;;;;;;5059312;28;20577;-61
2023/03/01 00:34:55;;;;;;;7.00;6.40;;;;;;;;;;5059743;28;20323;-61
2023/03/01 00:37:22;;;;;;;7.68;6.97;;;;;;;;;;5060377;28;20216;-61
2023/03/01 00:39:50;;;;;;;7.20;6.60;;;;;;;;;;5059710;28;20307;-61
2023/03/01 00:42:18;;;;;;;6.68;5.97;;;;;;;;;;5060274;28;20557;-61
2023/03/01 00:44:46;;;;;;;7.00;6.32;;;;;;;;;;5059856;28;20201;-61
2023/03/01 00:47:15;;;;;;;7.15;6.47;;;;;;;;;;5059889;28;20517;-61
2023/03/01 00:49:42;;;;;;;6.80;6.20;;;;;;;;;;5059848;28;20205;-61
2023/03/01 00:52:11;;;;;;;6.75;6.25;;;;;;;;;;5060358;28;20205;-61
2023/03/01 00:54:39;;;;;;;6.43;5.93;;;;;;;;;;5051940;28;20323;-61
2023/03/01 00:57:07;;;;;;;6.85;6.25;;;;;;;;;;5059368;28;20211;-61
2023/03/01 00:59:34;;;;;;;6.90;6.30;;;;;;;;;;5059667;28;20216;-61
2023/03/01 01:02:02;;;;;;;6.50;5.95;;;;;;;;;;5059488;28;20616;-61
2023/03/01 01:04:29;;;;;;;7.05;6.45;;;;;;;;;;5060022;28;20201;-61
2023/03/01 01:06:57;;;;;;;6.60;6.00;;;;;;;;;;5059246;28;20213;-61
2023/03/01 01:09:26;;;;;;;6.78;6.18;;;;;;;;;;5059314;28;20262;-61
2023/03/01 01:11:54;;;;;;;6.93;6.22;;;;;;;;;;5059768;28;20465;-61
2023/03/01 01:14:22;;;;;;;6.68;6.07;;;;;;;;;;5059495;28;20229;-61
2023/03/01 01:16:50;;;;;;;7.22;6.63;;;;;;;;;;5060104;28;20466;-61
2023/03/01 01:19:18;;;;;;;7.00;6.40;;;;;;;;;;5059222;28;20608;-61
2023/03/01 01:21:47;;;;;;;6.80;6.20;;;;;;;;;;5059528;28;20205;-61
2023/03/01 01:24:15;;;;;;;6.50;6.00;;;;;;;;;;5058640;28;20201;-61
2023/03/01 01:26:45;;;;;;;6.80;6.20;;;;;;;;;;5059306;28;20213;-61
2023/03/01 01:29:13;;;;;;;6.68;6.13;;;;;;;;;;5059395;28;20205;-61
2023/03/01 01:31:41;;;;;;;6.00;5.50;;;;;;;;;;5059253;28;20245;-61
2023/03/01 01:34:10;;;;;;;6.55;5.95;;;;;;;;;;5058930;28;20294;-61
2023/03/01 01:36:38;;;;;;;6.43;5.90;;;;;;;;;;5058780;28;20209;-61
2023/03/01 01:39:06;;;;;;;6.38;5.88;;;;;;;;;;5058889;28;20562;-61
2023/03/01 01:41:34;;;;;;;6.20;5.70;;;;;;;;;;5059143;28;20213;-61
2023/03/01 01:44:14;;;;;;;5.97;5.47;;;;;;;;;;5058708;28;20456;-61
2023/03/01 01:46:43;;;;;;;6.70;6.10;;;;;;;;;;5059168;28;20697;-61
2023/03/01 01:49:17;;;;;;;6.28;5.68;;;;;;;;;;5059202;28;20205;-61
2023/03/01 01:51:47;;;;;;;6.32;5.82;;;;;;;;;;5059014;28;20204;-61
2023/03/01 01:54:17;;;;;;;6.82;6.32;;;;;;;;;;5059002;28;20310;-61
2023/03/01 01:56:48;;;;;;;6.50;5.95;;;;;;;;;;5059197;28;20233;-61
2023/03/01 01:59:17;;;;;;;6.97;6.38;;;;;;;;;;5058355;28;20205;-61
2023/03/01 02:01:45;;;;;;;6.43;5.85;;;;;;;;;;5058443;28;20237;-61
2023/03/01 02:04:13;;;;;;;6.20;5.68;;;;;;;;;;5058463;28;20208;-61
2023/03/01 02:06:43;;;;;;;6.50;5.90;;;;;;;;;;5050189;28;20271;-61
2023/03/01 02:09:13;;;;;;;6.78;6.18;;;;;;;;;;5058358;28;20582;-61
2023/03/01 02:11:41;;;;;;;6.60;6.05;;;;;;;;;;5050166;28;20476;-61
2023/03/01 02:14:09;;;;;;;6.45;5.93;;;;;;;;;;5057945;28;20221;-61
2023/03/01 02:16:38;;;;;;;6.22;5.72;;;;;;;;;;5057688;28;20212;-61
2023/03/01 02:19:06;;;;;;;6.90;6.38;;;;;;;;;;5058160;28;20300;-61
2023/03/01 02:21:39;;;;;;;6.18;5.68;;;;;;;;;;5057696;28;20216;-61
2023/03/01 02:24:10;;;;;;;6.40;5.90;;;;;;;;;;5057767;28;20600;-61
2023/03/01 02:26:42;;;;;;;6.53;5.90;;;;;;;;;;5057685;28;20237;-61
2023/03/01 02:29:13;;;;;;;6.72;6.13;;;;;;;;;;5057950;28;20298;-61
2023/03/01 02:31:44;;;;;;;7.10;6.50;;;;;;;;;;5058219;28;20233;-61
2023/03/01 02:34:14;;;;;;;7.00;6.40;;;;;;;;;;5058025;28;20225;-61
2023/03/01 02:36:42;;;;;;;7.00;6.38;;;;;;;;;;5058136;28;20213;-61
2023/03/01 02:39:14;;;;;;;6.80;6.13;;;;;;;;;;5057196;28;20251;-61
2023/03/01 02:41:44;;;;;;;6.25;5.75;;;;;;;;;;5057778;28;20555;-61
2023/03/01 02:44:13;;;;;;;6.68;6.15;;;;;;;;;;5057762;28;20207;-61
2023/03/01 02:46:45;;;;;;;6.80;6.20;;;;;;;;;;5058027;28;20209;-61
2023/03/01 02:49:23;;;;;;;6.25;5.75;;;;;;;;;;5057340;28;20204;-61
2023/03/01 02:51:58;;;;;;;7.10;6.50;;;;;;;;;;5057361;28;20205;-61
2023/03/01 02:54:27;;;;;;;6.85;6.30;;;;;;;;;;5057792;28;20224;-60
2023/03/01 02:56:55;;;;;;;6.47;5.88;;;;;;;;;;5057856;28;20533;-60
2023/03/01 02:59:26;;;;;;;6.50;6.00;;;;;;;;;;5057749;28;20296;-60
2023/03/01 03:01:54;;;;;;;6.95;6.28;;;;;;;;;;5057729;28;20220;-61
2023/03/01 03:04:21;;;;;;;6.60;6.00;;;;;;;;;;5057498;28;20197;-61
2023/03/01 03:06:50;;;;;;;7.03;6.43;;;;;;;;;;5057976;28;20205;-61
2023/03/01 03:09:18;;;;;;;7.25;6.65;;;;;;;;;;5056732;28;20205;-61
2023/03/01 03:11:46;;;;;;;6.53;5.93;;;;;;;;;;5057368;28;20244;-61
2023/03/01 03:14:15;;;;;;;7.57;6.95;;;;;;;;;;5057614;28;20477;-61
2023/03/01 03:16:45;;;;;;;6.95;6.35;;;;;;;;;;5048996;28;20248;-61
2023/03/01 03:19:13;;;;;;;7.65;6.97;;;;;;;;;;5057427;28;20548;-61
2023/03/01 03:21:41;;;;;;;7.20;6.60;;;;;;;;;;5057235;28;20298;-61
2023/03/01 03:24:09;;;;;;;6.88;6.30;;;;;;;;;;5057399;28;20209;-61
2023/03/01 03:26:36;;;;;;;7.07;6.45;;;;;;;;;;5057075;28;20244;-61
2023/03/01 03:29:04;;;;;;;7.55;6.85;;;;;;;;;;5057309;28;20204;-61
2023/03/01 03:31:31;;;;;;;6.88;6.28;;;;;;;;;;5056802;28;20616;-61
2023/03/01 03:34:01;;;;;;;6.72;6.13;;;;;;;;;;5057117;28;20201;-61
2023/03/01 03:36:29;;;;;;;6.57;5.97;;;;;;;;;;5057375;28;20232;-60
2023/03/01 03:38:56;;;;;;;6.97;6.40;;;;;;;;;;5057074;28;20252;-60
2023/03/01 03:41:24;;;;;;;6.63;6.05;;;;;;;;;;5056722;28;20209;-60
2023/03/01 03:43:52;;;;;;;7.85;7.15;;;;;;;;;;5056792;28;20205;-60
2023/03/01 03:46:19;;;;;;;6.75;6.10;;;;;;;;;;5057373;28;20204;-61
2023/03/01 03:48:47;;;;;;;7.25;6.65;;;;;;;;;;5059734;28;20230;-61
2023/03/01 03:51:17;;;;;;;7.22;6.53;;;;;;;;;;5060967;28;20213;-61
2023/03/01 03:53:45;;;;;;;7.00;6.40;;;;;;;;;;5060852;28;20585;-61
2023/03/01 03:56:13;;;;;;;7.45;6.75;;;;;;;;;;5060115;28;20236;-61
2023/03/01 03:58:41;;;;;;;6.90;6.30;;;;;;;;;;5052834;28;20209;-60
2023/03/01 04:01:09;;;;;;;7.40;6.78;;;;;;;;;;5059798;28;20204;-61
2023/03/01 04:03:37;;;;;;;7.53;6.82;;;;;;;;;;5060980;28;20534;-61
2023/03/01 04:06:05;;;;;;;7.10;6.50;;;;;;;;;;5061295;28;20227;-61
2023/03/01 04:08:35;;;;;;;7.13;6.53;;;;;;;;;;5060770;28;20369;-61
2023/03/01 04:11:25;;;;;;;6.95;6.35;;;;;;;;;;5060674;28;20208;-61
2023/03/01 04:13:52;;;;;;;6.95;6.35;;;;;;;;;;5060516;28;20208;-59
2023/03/01 04:16:20;;;;;;;7.28;6.68;;;;;;;;;;5060572;28;20647;-60
2023/03/01 04:18:48;;;;;;;7.55;6.85;;;;;;;;;;5060422;28;20205;-60
2023/03/01 04:21:15;;;;;;;6.88;6.28;;;;;;;;;;5060081;28;20248;-60
2023/03/01 04:23:46;;;;;;;6.90;6.30;;;;;;;;;;5059787;28;20585;-60
2023/03/01 04:26:14;;;;;;;6.95;6.35;;;;;;;;;;5060361;28;20565;-61
2023/03/01 04:28:44;;;;;;;6.95;6.35;;;;;;;;;;5059547;28;20213;-61
2023/03/01 04:31:17;;;;;;;6.85;6.25;;;;;;;;;;5060079;28;20589;-61
2023/03/01 04:33:46;;;;;;;6.50;6.00;;;;;;;;;;5051967;28;20235;-61
2023/03/01 04:36:14;;;;;;;7.45;6.85;;;;;;;;;;5060217;28;20647;-61
2023/03/01 04:38:44;;;;;;;6.93;6.32;;;;;;;;;;5059970;28;20638;-61
2023/03/01 04:41:13;;;;;;;6.95;6.35;;;;;;;;;;5059642;28;20507;-61
2023/03/01 04:43:41;;;;;;;7.00;6.40;;;;;;;;;;5059685;28;20882;-61
2023/03/01 04:46:09;;;;;;;6.85;6.25;;;;;;;;;;5059498;28;20542;-61
2023/03/01 04:48:37;;;;;;;7.28;6.68;;;;;;;;;;5059843;28;20226;-59
2023/03/01 04:51:05;;;;;;;7.15;6.55;;;;;;;;;;5060182;28;20577;-59
2023/03/01 04:53:35;;;;;;;7.25;6.57;;;;;;;;;;5059161;28;20215;-61
2023/03/01 04:56:03;;;;;;;7.13;6.50;;;;;;;;;;5059694;28;20629;-60
2023/03/01 04:58:32;;;;;;;7.40;6.80;;;;;;;;;;5059391;28;20247;-60
2023/03/01 05:01:00;;;;;;;7.45;6.75;;;;;;;;;;5058651;28;20205;-60
2023/03/01 05:03:28;;;;;;;7.63;6.97;;;;;;;;;;5058892;28;20255;-60
2023/03/01 05:05:56;;;;;;;7.75;7.15;;;;;;;;;;5058817;28;20263;-60
2023/03/01 05:08:23;;;;;;;6.68;6.07;;;;;;;;;;5058742;28;20252;-60
2023/03/01 05:10:51;;;;;;;7.38;6.68;;;;;;;;;;5059490;28;20201;-60
2023/03/01 05:13:21;;;;;;;8.00;7.30;;;;;;;;;;5059112;28;20212;-60
2023/03/01 05:15:55;;;;;;;7.35;6.68;;;;;;;;;;5058551;28;20225;-60
2023/03/01 05:18:25;;;;;;;7.13;6.53;;;;;;;;;;5058780;28;20216;-60
2023/03/01 05:20:57;;;;;;;7.20;6.60;;;;;;;;;;5057889;28;20271;-60
2023/03/01 05:23:25;;;;;;;7.47;6.88;;;;;;;;;;5059340;28;20205;-60
2023/03/01 05:25:53;;;;;;;7.53;6.93;;;;;;;;;;5058648;28;20236;-60
2023/03/01 05:28:22;;;;;;;7.05;6.45;;;;;;;;;;5058476;28;20209;-60
2023/03/01 05:30:51;;;;;;;7.47;6.80;;;;;;;;;;5058207;28;20209;-60
2023/03/01 05:33:19;;;;;;;7.60;7.00;;;;;;;;;;5058316;28;20492;-60
2023/03/01 05:35:48;;;;;;;7.32;6.63;;;;;;;;;;5058165;28;20239;-60
2023/03/01 05:38:16;;;;;;;7.05;6.45;;;;;;;;;;5058145;28;20205;-60
2023/03/01 05:40:45;;;;;;;7.10;6.50;;;;;;;;;;5058255;28;20211;-60
2023/03/01 05:43:13;;;;;;;7.30;6.70;;;;;;;;;;5057514;28;20216;-60
2023/03/01 05:45:41;;;;;;;7.65;7.05;;;;;;;;;;5057644;28;20213;-60
2023/03/01 05:48:11;;;;;;;7.50;6.88;;;;;;;;;;5057569;28;20212;-60
2023/03/01 05:50:40;;;;;;;7.55;6.85;;;;;;;;;;5057471;28;20209;-60
2023/03/01 05:53:08;;;;;;;7.80;7.10;;;;;;;;;;5057258;28;20605;-60
2023/03/01 05:55:36;;;;;;;7.68;6.97;;;;;;;;;;5056756;28;20255;-60
2023/03/01 05:58:05;;;;;;;8.00;7.30;;;;;;;;;;5057104;28;20469;-60
2023/03/01 06:00:33;;;;;;;8.10;7.40;;;;;;;;;;5052806;28;20232;-60
2023/03/01 06:03:01;;;;;;;7.65;6.95;;;;;;;;;;5016048;28;20206;-60
2023/03/01 06:05:30;;;;;;;7.88;7.10;;;;;;;;;;5017038;28;20510;-60
2023/03/01 06:08:00;;;;;;;7.70;7.00;;;;;;;;;;5016211;28;20308;-60
2023/03/01 06:10:28;;;;;;;7.65;7.03;;;;;;;;;;5016333;28;20304;-60
2023/03/01 06:12:56;;;;;;;7.65;6.95;;;;;;;;;;5015487;28;20214;-61
2023/03/01 06:15:23;;;;;;;7.80;7.10;;;;;;;;;;5014917;28;20230;-60
2023/03/01 06:17:51;;;;;;;7.45;6.85;;;;;;;;;;5014929;28;20305;-61
2023/03/01 06:20:20;;;;;;;8.80;8.00;;;;;;;;;;5015508;28;20206;-60
2023/03/01 06:22:50;;;;;;;8.30;7.32;;;;;;;;;;5015937;28;20653;-60
2023/03/01 06:25:19;;;;;;;7.95;7.15;;;;;;;;;;5014919;28;20669;-60
2023/03/01 06:27:46;;;;;;;9.05;8.15;;;;;;;;;;5015175;28;20217;-60
2023/03/01 06:30:15;;;;;;;37.25;32.08;;;;;;;;;;5015139;28;20643;-60
2023/03/01 06:32:43;;;;;;;48.88;43.75;;;;;;;;;;5008509;28;20489;-60
2023/03/01 06:35:12;;;;;;;39.78;35.67;;;;;;;;;;5014819;28;20210;-60
2023/03/01 06:37:39;;;;;;;38.28;34.28;;;;;;;;;;5015467;28;20606;-60
2023/03/01 06:40:11;;;;;;;36.08;32.38;;;;;;;;;;5015250;28;20220;-60
2023/03/01 06:42:39;;;;;;;34.03;30.40;;;;;;;;;;5014695;28;20288;-60
2023/03/01 06:45:08;;;;;;;32.20;28.80;;;;;;;;;;5015333;28;20645;-60
2023/03/01 06:47:36;;;;;;;32.47;29.17;;;;;;;;;;5014469;28;20221;-60
2023/03/01 06:50:04;;;;;;;30.65;27.40;;;;;;;;;;5014936;28;20842;-60
2023/03/01 06:52:32;;;;;;;28.10;25.20;;;;;;;;;;5014913;28;20206;-60
2023/03/01 06:54:59;;;;;;;26.90;24.25;;;;;;;;;;5014950;28;20198;-60
2023/03/01 06:57:29;;;;;;;27.08;24.15;;;;;;;;;;5013951;28;20222;-60
2023/03/01 06:59:56;;;;;;;26.58;23.95;;;;;;;;;;5014205;28;20575;-60
2023/03/01 07:02:24;;;;;;;25.40;22.75;;;;;;;;;;5013506;28;20297;-60
2023/03/01 07:04:52;;;;;;;25.73;23.13;;;;;;;;;;5016468;28;20217;-60
2023/03/01 07:07:20;;;;;;;24.38;21.90;;;;;;;;;;5031329;28;20579;-60
2023/03/01 07:09:48;;;;;;;23.52;21.23;;;;;;;;;;5031871;28;20201;-60
2023/03/01 07:12:17;;;;;;;23.15;20.85;;;;;;;;;;5035023;28;20206;-60
2023/03/01 07:14:47;;;;;;;23.60;21.17;;;;;;;;;;5034807;28;20553;-60
2023/03/01 07:17:14;;;;;;;21.95;19.63;;;;;;;;;;5035107;28;20226;-60
2023/03/01 07:19:42;;;;;;;20.10;18.05;;;;;;;;;;5035002;28;20497;-60
2023/03/01 07:22:09;;;;;;;20.80;18.63;;;;;;;;;;5034148;28;20198;-60
2023/03/01 07:24:37;;;;;;;20.00;18.00;;;;;;;;;;5034622;28;20267;-60
2023/03/01 07:27:05;;;;;;;19.35;17.52;;;;;;;;;;5034303;28;20205;-60
2023/03/01 07:29:32;;;;;;;19.38;17.02;;;;;;;;;;5034607;28;20640;-60
2023/03/01 07:32:02;;;;;;;17.65;15.95;;;;;;;;;;5034784;28;20216;-60
2023/03/01 07:34:29;;;;;;;17.50;15.77;;;;;;;;;;5034280;28;20210;-60
2023/03/01 07:36:57;;;;;;;17.48;15.73;;;;;;;;;;5034865;28;20228;-60
2023/03/01 07:39:25;;;;;;;17.00;15.35;;;;;;;;;;5035266;28;20209;-60
2023/03/01 07:41:53;;;;;;;16.25;14.65;;;;;;;;;;5041905;28;20208;-60
2023/03/01 07:44:21;;;;;;;16.55;14.95;;;;;;;;;;5054168;28;20207;-60
2023/03/01 07:46:48;;;;;;;15.52;13.90;;;;;;;;;;5055103;28;20295;-60
2023/03/01 07:49:17;;;;;;;15.77;14.18;;;;;;;;;;5055150;28;20236;-60
2023/03/01 07:51:45;;;;;;;14.88;13.43;;;;;;;;;;5054358;28;20209;-60
2023/03/01 07:54:12;;;;;;;14.95;13.30;;;;;;;;;;5054887;28;20201;-60
2023/03/01 07:56:41;;;;;;;14.85;13.38;;;;;;;;;;5054574;28;20628;-60
2023/03/01 07:59:08;;;;;;;14.02;12.52;;;;;;;;;;5055277;28;20588;-60
2023/03/01 08:01:36;;;;;;;14.20;12.80;;;;;;;;;;5055150;28;20215;-60
2023/03/01 08:04:06;;;;;;;13.00;11.75;;;;;;;;;;5055304;28;20211;-60
2023/03/01 08:06:36;;;;;;;12.68;11.40;;;;;;;;;;5054941;28;20201;-60
2023/03/01 08:09:04;;;;;;;13.00;11.65;;;;;;;;;;5055154;28;20296;-60
2023/03/01 08:11:31;;;;;;;12.85;11.65;;;;;;;;;;5055447;28;20196;-60
2023/03/01 08:13:59;;;;;;;12.63;11.43;;;;;;;;;;5054609;28;20275;-60
2023/03/01 08:16:27;;;;;;;12.50;11.30;;;;;;;;;;5054568;28;20304;-61
2023/03/01 08:18:56;;;;;;;13.20;11.90;;;;;;;;;;5054484;28;20205;-61
2023/03/01 08:21:24;;;;;;;12.38;11.05;;;;;;;;;;5051663;28;20292;-60
2023/03/01 08:23:53;;;;;;;12.10;11.00;;;;;;;;;;5034204;28;20206;-60
2023/03/01 08:26:21;;;;;;;11.65;10.55;;;;;;;;;;5034024;28;20625;-60
2023/03/01 08:28:49;;;;;;;10.93;9.93;;;;;;;;;;5034813;28;20289;-60
2023/03/01 08:31:19;;;;;;;10.88;9.77;;;;;;;;;;5034748;28;20505;-60
2023/03/01 08:33:50;;;;;;;10.90;9.90;;;;;;;;;;5035484;28;20210;-60
2023/03/01 08:36:19;;;;;;;11.15;10.05;;;;;;;;;;5038027;28;20236;-60
2023/03/01 08:38:47;;;;;;;10.52;9.60;;;;;;;;;;5037759;28;20213;-60
2023/03/01 08:41:16;;;;;;;10.77;9.77;;;;;;;;;;5038246;28;20206;-60
2023/03/01 08:43:44;;;;;;;10.35;9.35;;;;;;;;;;5037873;28;20217;-60
2023/03/01 08:46:12;;;;;;;10.63;9.63;;;;;;;;;;5037280;28;20202;-60
2023/03/01 08:48:42;;;;;;;10.48;9.57;;;;;;;;;;5036804;28;20206;-60
2023/03/01 08:51:11;;;;;;;10.25;9.35;;;;;;;;;;5037335;28;20205;-60
2023/03/01 08:53:38;;;;;;;9.80;8.90;;;;;;;;;;5038203;28;20296;-60
2023/03/01 08:56:06;;;;;;;10.10;9.20;;;;;;;;;;5037421;28;20249;-60
2023/03/01 08:58:35;;;;;;;10.20;9.30;;;;;;;;;;5036892;28;20229;-60
2023/03/01 09:01:08;;;;;;;10.07;9.13;;;;;;;;;;5036854;28;20601;-60
2023/03/01 09:03:36;;;;;;;9.57;8.68;;;;;;;;;;5037792;28;20343;-61
2023/03/01 09:06:04;;;;;;;10.27;9.27;;;;;;;;;;5037339;28;20209;-60
2023/03/01 09:08:32;;;;;;;10.05;9.15;;;;;;;;;;5037623;28;20217;-60
2023/03/01 09:11:03;;;;;;;9.63;8.82;;;;;;;;;;5037556;28;20212;-60
2023/03/01 09:13:31;;;;;;;8.82;8.00;;;;;;;;;;5037701;28;20216;-60
2023/03/01 09:16:02;;;;;;;9.88;8.98;;;;;;;;;;5037765;28;20283;-60
2023/03/01 09:18:29;;;;;;;9.57;8.68;;;;;;;;;;5036967;28;20256;-60
2023/03/01 09:21:02;;;;;;;9.55;8.65;;;;;;;;;;5037627;28;20206;-60
2023/03/01 09:23:29;;;;;;;9.02;8.23;;;;;;;;;;5037814;28;20597;-60
2023/03/01 09:25:57;;;;;;;9.05;8.25;;;;;;;;;;5037183;28;20666;-60
2023/03/01 09:28:24;;;;;;;9.23;8.43;;;;;;;;;;5036960;28;20216;-60
2023/03/01 09:30:52;;;;;;;9.30;8.50;;;;;;;;;;5037897;28;20267;-60
2023/03/01 09:33:21;;;;;;;8.50;7.75;;;;;;;;;;5038040;28;20206;-60
2023/03/01 09:35:48;;;;;;;9.38;8.43;;;;;;;;;;5037130;28;20332;-60
2023/03/01 09:38:15;;;;;;;8.70;7.90;;;;;;;;;;5037120;28;20233;-60
2023/03/01 09:40:46;;;;;;;8.73;7.93;;;;;;;;;;5037151;28;20205;-60
2023/03/01 09:43:20;;;;;;;8.85;8.05;;;;;;;;;;5036519;28;20213;-60
2023/03/01 09:45:49;;;;;;;9.07;8.27;;;;;;;;;;5036355;28;20247;-60
2023/03/01 09:48:18;;;;;;;8.88;7.97;;;;;;;;;;5036809;28;20202;-60
2023/03/01 09:50:47;;;;;;;8.65;7.95;;;;;;;;;;5036924;28;20221;-60
2023/03/01 09:53:16;;;;;;;8.85;8.05;;;;;;;;;;5037076;28;20624;-60
2023/03/01 09:55:45;;;;;;;8.95;8.15;;;;;;;;;;5037017;28;20201;-60
2023/03/01 09:58:30;;;;;;;17.88;14.52;;;;;;;;;;5055573;28;20233;-60
2023/03/01 10:00:59;;;;;;;22.65;17.10;;;;;;;;;;5056658;28;20205;-61
2023/03/01 10:03:27;;;;;;;17.77;15.45;;;;;;;;;;5056871;28;20295;-61
2023/03/01 10:06:02;;;;;;;18.35;15.32;;;;;;;;;;5056515;28;20659;-60
2023/03/01 10:08:35;;;;;;;18.42;15.00;;;;;;;;;;5056078;28;20223;-60
2023/03/01 10:11:03;;;;;;;17.63;15.25;;;;;;;;;;5056421;28;20228;-60
2023/03/01 10:13:34;;;;;;;18.52;16.23;;;;;;;;;;5055804;28;20205;-60
2023/03/01 10:16:04;;;;;;;18.20;16.30;;;;;;;;;;5056436;28;20235;-60
2023/03/01 10:18:33;;;;;;;18.13;16.23;;;;;;;;;;5055976;28;20235;-61
2023/03/01 10:21:03;;;;;;;17.75;15.90;;;;;;;;;;5055863;28;20322;-61
2023/03/01 10:23:33;;;;;;;17.98;16.08;;;;;;;;;;5056308;28;20212;-60
2023/03/01 10:26:11;;;;;;;18.35;15.77;;;;;;;;;;5055479;28;20280;-61
2023/03/01 10:28:44;;;;;;;16.42;14.70;;;;;;;;;;5055716;28;20197;-60
2023/03/01 10:31:13;;;;;;;17.38;15.48;;;;;;;;;;5055598;28;20623;-60
2023/03/01 10:33:42;;;;;;;15.90;14.25;;;;;;;;;;5051985;28;20694;-60
2023/03/01 10:36:11;;;;;;;16.83;13.77;;;;;;;;;;5052492;28;20714;-60
2023/03/01 10:38:53;;;;;;;16.70;14.00;;;;;;;;;;5054826;28;20315;-60
2023/03/01 10:41:23;;;;;;;14.43;12.93;;;;;;;;;;5054904;28;20200;-60
2023/03/01 10:43:51;;;;;;;14.85;12.40;;;;;;;;;;5054770;28;20197;-59
2023/03/01 10:46:28;;;;;;;14.15;12.32;;;;;;;;;;5053787;28;20283;-60
2023/03/01 10:49:09;;;;;;;14.18;11.77;;;;;;;;;;5046950;28;20361;-60
2023/03/01 10:51:38;;;;;;;12.55;11.25;;;;;;;;;;5035120;28;20300;-60
2023/03/01 10:54:06;;;;;;;13.82;12.35;;;;;;;;;;5034096;28;20204;-60
2023/03/01 10:56:47;;;;;;;12.10;10.68;;;;;;;;;;5033787;28;20305;-60
2023/03/01 10:59:23;;;;;;;13.07;11.15;;;;;;;;;;5034486;28;20267;-59
2023/03/01 11:02:03;;;;;;;12.68;10.55;;;;;;;;;;5049570;28;20192;-60
2023/03/01 11:04:30;;;;;;;11.10;10.00;;;;;;;;;;5054477;28;20299;-60
2023/03/01 11:07:02;;;;;;;13.48;10.70;;;;;;;;;;5054576;28;20236;-60
2023/03/01 11:09:37;;;;;;;12.93;9.90;;;;;;;;;;5055196;28;20311;-60
2023/03/01 11:12:06;;;;;;;11.50;10.23;;;;;;;;;;5054161;28;20627;-60
2023/03/01 11:14:35;;;;;;;10.82;9.32;;;;;;;;;;5054931;28;20660;-59
2023/03/01 11:17:03;;;;;;;11.20;9.82;;;;;;;;;;5055003;28;20267;-60
2023/03/01 11:19:33;;;;;;;12.18;9.55;;;;;;;;;;5054762;28;20287;-60
2023/03/01 11:22:04;;;;;;;14.82;9.27;;;;;;;;;;5055025;28;20205;-60
2023/03/01 11:24:35;;;;;;;10.65;9.52;;;;;;;;;;5043604;28;20355;-60
2023/03/01 11:27:04;;;;;;;9.80;8.77;;;;;;;;;;5022458;28;20221;-60
2023/03/01 11:29:37;;;;;;;9.98;8.98;;;;;;;;;;5023409;28;20293;-60
2023/03/01 11:32:08;;;;;;;10.30;8.85;;;;;;;;;;5025149;28;20198;-60
2023/03/01 11:34:44;;;;;;;10.55;8.70;;;;;;;;;;5033854;28;20240;-60
2023/03/01 11:37:17;;;;;;;9.60;8.60;;;;;;;;;;5033374;28;20328;-60
2023/03/01 11:39:47;;;;;;;10.10;8.68;;;;;;;;;;5033516;28;20304;-60
2023/03/01 11:42:17;;;;;;;9.25;8.35;;;;;;;;;;5033275;28;20308;-60
2023/03/01 11:44:46;;;;;;;11.50;9.00;;;;;;;;;;5033995;28;20300;-60
2023/03/01 11:47:22;;;;;;;9.40;8.15;;;;;;;;;;5034789;28;20304;-60
2023/03/01 11:49:54;;;;;;;8.48;7.65;;;;;;;;;;5026967;28;20304;-60
2023/03/01 11:52:29;;;;;;;9.23;7.60;;;;;;;;;;5033799;28;20732;-60
2023/03/01 11:55:05;;;;;;;9.07;7.38;;;;;;;;;;5033830;28;20213;-60
2023/03/01 11:57:40;;;;;;;8.25;7.45;;;;;;;;;;5033341;28;20295;-60
2023/03/01 12:00:23;;;;;;;7.97;7.18;;;;;;;;;;5033325;28;20208;-60
2023/03/01 12:03:06;;;;;;;9.23;6.88;;;;;;;;;;4993666;28;20261;-61
2023/03/01 12:05:50;;;;;;;8.32;6.68;;;;;;;;;;4984329;28;20237;-60
2023/03/01 12:08:20;;;;;;;10.80;7.28;;;;;;;;;;5013487;28;20281;-60
2023/03/01 12:10:56;;;;;;;7.70;6.90;;;;;;;;;;5017660;28;20293;-60
2023/03/01 12:13:38;;;;;;;8.93;7.20;;;;;;;;;;5017113;28;20202;-60
2023/03/01 12:16:11;;;;;;;8.65;7.57;;;;;;;;;;5014784;28;20300;-60
2023/03/01 12:18:52;;;;;;;7.35;6.57;;;;;;;;;;5027049;28;20272;-60
2023/03/01 12:21:24;;;;;;;8.32;7.05;;;;;;;;;;5025766;28;20262;-61
2023/03/01 12:24:12;;;;;;;9.15;6.70;;;;;;;;;;5027643;28;20205;-60
2023/03/01 12:26:45;;;;;;;8.00;6.88;;;;;;;;;;5044817;28;20236;-61
2023/03/01 12:29:30;;;;;;;7.53;6.72;;;;;;;;;;5047614;28;20288;-60
2023/03/01 12:32:15;;;;;;;7.22;6.00;;;;;;;;;;5046420;28;20236;-60
2023/03/01 12:34:50;;;;;;;7.20;6.50;;;;;;;;;;5038369;28;20253;-61
2023/03/01 12:37:26;;;;;;;6.65;6.05;;;;;;;;;;5044646;28;20316;-61
2023/03/01 12:40:04;;;;;;;7.60;6.65;;;;;;;;;;5042947;28;20204;-60
2023/03/01 12:42:34;;;;;;;8.73;6.50;;;;;;;;;;5045508;28;20213;-60
2023/03/01 12:45:18;;;;;;;8.63;6.68;;;;;;;;;;5045666;28;20609;-60
2023/03/01 12:47:57;;;;;;;12.77;6.28;;;;;;;;;;5046324;28;20264;-61
2023/03/01 12:50:26;;;;;;;7.78;6.03;;;;;;;;;;5048118;28;20294;-60
2023/03/01 12:52:54;;;;;;;7.28;6.05;;;;;;;;;;5043837;28;20854;-60
2023/03/01 12:55:31;;;;;;;6.78;6.18;;;;;;;;;;5047331;28;20193;-60
2023/03/01 12:58:02;;;;;;;6.78;5.78;;;;;;;;;;5052449;28;20224;-60
2023/03/01 13:00:30;;;;;;;8.57;5.85;;;;;;;;;;5050273;28;20284;-60
2023/03/01 13:03:02;;;;;;;7.10;6.18;;;;;;;;;;5052495;28;20284;-66
2023/03/01 13:05:36;;;;;;;7.43;6.20;;;;;;;;;;5057650;28;20207;-66
2023/03/01 13:08:09;;;;;;;6.82;5.88;;;;;;;;;;5057699;28;20487;-66
2023/03/01 13:10:42;;;;;;;6.90;6.20;;;;;;;;;;5056076;28;20487;-65
2023/03/01 13:13:15;;;;;;;7.63;6.40;;;;;;;;;;5056977;28;20635;-65
2023/03/01 13:15:42;;;;;;;6.50;5.90;;;;;;;;;;5056072;28;20283;-65
2023/03/01 13:18:28;;;;;;;6.72;6.07;;;;;;;;;;5056436;28;20323;-65
2023/03/01 13:20:57;;;;;;;6.50;5.90;;;;;;;;;;5055341;28;20244;-65
2023/03/01 13:23:28;;;;;;;6.55;5.95;;;;;;;;;;5056642;28;20296;-65
2023/03/01 13:26:10;;;;;;;6.30;5.78;;;;;;;;;;5055893;28;20268;-65
2023/03/01 13:28:41;;;;;;;6.82;6.22;;;;;;;;;;5055506;28;20557;-65
2023/03/01 13:31:10;;;;;;;5.70;5.20;;;;;;;;;;5051618;28;20201;-66
2023/03/01 13:33:47;;;;;;;6.53;5.93;;;;;;;;;;5056172;28;20205;-67
2023/03/01 13:36:29;;;;;;;6.50;5.85;;;;;;;;;;5056058;28;20608;-67
2023/03/01 13:38:58;;;;;;;7.78;6.70;;;;;;;;;;5054611;28;20232;-67
2023/03/01 13:41:40;;;;;;;7.15;6.45;;;;;;;;;;5054749;28;20216;-66
2023/03/01 13:44:19;;;;;;;7.07;6.38;;;;;;;;;;5053128;28;20256;-67
2023/03/01 13:46:47;;;;;;;6.28;5.68;;;;;;;;;;5055445;28;20608;-65
2023/03/01 13:49:16;;;;;;;6.22;5.60;;;;;;;;;;5055718;28;20201;-66
2023/03/01 13:51:48;;;;;;;6.53;5.70;;;;;;;;;;5055316;28;20605;-66
2023/03/01 13:54:16;;;;;;;6.45;5.85;;;;;;;;;;5056894;28;20498;-66
2023/03/01 13:56:44;;;;;;;7.07;6.38;;;;;;;;;;5049594;28;20285;-65
2023/03/01 13:59:16;;;;;;;6.40;5.80;;;;;;;;;;5035553;28;20272;-66
2023/03/01 14:01:44;;;;;;;6.50;5.90;;;;;;;;;;5036172;28;20213;-66
2023/03/01 14:04:23;;;;;;;6.30;5.72;;;;;;;;;;5036392;28;20210;-66
2023/03/01 14:06:50;;;;;;;6.60;5.97;;;;;;;;;;5035789;28;20223;-66
2023/03/01 14:09:19;;;;;;;6.65;6.05;;;;;;;;;;5036162;28;20219;-65
2023/03/01 14:12:01;;;;;;;7.43;5.80;;;;;;;;;;5034924;28;20206;-66
2023/03/01 14:14:38;;;;;;;6.38;5.78;;;;;;;;;;5035499;28;20260;-66
2023/03/01 14:17:14;;;;;;;6.50;5.90;;;;;;;;;;5035698;28;20232;-66
2023/03/01 14:19:44;;;;;;;6.82;6.22;;;;;;;;;;5027277;28;20225;-66
2023/03/01 14:22:16;;;;;;;7.07;6.38;;;;;;;;;;5035395;28;20224;-66
2023/03/01 14:24:48;;;;;;;6.75;6.15;;;;;;;;;;5035352;28;20297;-66
2023/03/01 14:27:16;;;;;;;6.70;5.82;;;;;;;;;;5035229;28;20490;-66
2023/03/01 14:29:45;;;;;;;6.68;6.07;;;;;;;;;;5034814;28;20296;-66
2023/03/01 14:32:14;;;;;;;7.10;6.40;;;;;;;;;;5034974;28;20255;-65
2023/03/01 14:34:45;;;;;;;7.20;6.40;;;;;;;;;;5025558;28;20212;-66
2023/03/01 14:37:13;;;;;;;6.85;6.20;;;;;;;;;;5034325;28;20216;-66
2023/03/01 14:39:42;;;;;;;6.85;6.25;;;;;;;;;;5034430;28;20235;-66
2023/03/01 14:42:10;;;;;;;7.07;6.10;;;;;;;;;;5034777;28;20260;-66
2023/03/01 14:44:38;;;;;;;6.70;6.00;;;;;;;;;;5035402;28;20240;-66
2023/03/01 14:47:07;;;;;;;7.20;6.45;;;;;;;;;;5038522;28;20201;-66
2023/03/01 14:49:36;;;;;;;6.82;6.13;;;;;;;;;;5054033;28;20491;-66
2023/03/01 14:52:06;;;;;;;6.55;5.95;;;;;;;;;;5043087;28;20205;-66